sensor_id;sensor_type;location;lat;lon;timestamp;pressure;altitude;pressure_sealevel;temperature;humidity
59787;BME280;45672;51.612;5.536;2023-04-29T00:00:55;101263.63;;;10.50;100.00
59787;BME280;45672;51.612;5.536;2023-04-29T00:03:21;101257.44;;;10.50;100.00
59787;BME280;45672;51.612;5.536;2023-04-29T00:05:46;101255.22;;;10.45;100.00
59787;BME280;45672;51.612;5.536;2023-04-29T00:08:12;101257.06;;;10.45;100.00
59787;BME280;45672;51.612;5.536;2023-04-29T00:10:37;101255.22;;;10.45;100.00
59787;BME280;45672;51.612;5.536;2023-04-29T00:13:03;101265.88;;;10.45;100.00
59787;BME280;45672;51.612;5.536;2023-04-29T00:15:28;101273.88;;;10.35;100.00
59787;BME280;45672;51.612;5.536;2023-04-29T00:17:54;101269.94;;;10.30;100.00
59787;BME280;45672;51.612;5.536;2023-04-29T00:20:20;101271.91;;;10.28;100.00
59787;BME280;45672;51.612;5.536;2023-04-29T00:22:45;101271.19;;;10.26;100.00
59787;BME280;45672;51.612;5.536;2023-04-29T00:25:10;101273.31;;;10.22;100.00
59787;BME280;45672;51.612;5.536;2023-04-29T00:27:36;101276.94;;;10.21;100.00
59787;BME280;45672;51.612;5.536;2023-04-29T00:30:01;101280.19;;;10.15;100.00
59787;BME280;45672;51.612;5.536;2023-04-29T00:32:28;101279.03;;;10.17;100.00
59787;BME280;45672;51.612;5.536;2023-04-29T00:34:53;101285.91;;;10.10;100.00
59787;BME280;45672;51.612;5.536;2023-04-29T00:37:19;101284.09;;;10.11;100.00
59787;BME280;45672;51.612;5.536;2023-04-29T00:39:44;101286.34;;;10.06;100.00
59787;BME280;45672;51.612;5.536;2023-04-29T00:42:10;101287.16;;;10.06;100.00
59787;BME280;45672;51.612;5.536;2023-04-29T00:44:35;101294.03;;;10.09;100.00
59787;BME280;45672;51.612;5.536;2023-04-29T00:47:01;101298.38;;;10.10;100.00
59787;BME280;45672;51.612;5.536;2023-04-29T00:49:26;101291.22;;;10.10;100.00
59787;BME280;45672;51.612;5.536;2023-04-29T00:51:52;101290.97;;;10.13;100.00
59787;BME280;45672;51.612;5.536;2023-04-29T00:54:18;101296.81;;;10.17;100.00
59787;BME280;45672;51.612;5.536;2023-04-29T00:56:44;101296.28;;;10.13;100.00
59787;BME280;45672;51.612;5.536;2023-04-29T00:59:10;101299.34;;;10.09;100.00
59787;BME280;45672;51.612;5.536;2023-04-29T01:01:37;101303.00;;;10.08;100.00
59787;BME280;45672;51.612;5.536;2023-04-29T01:04:04;101305.38;;;10.11;100.00
59787;BME280;45672;51.612;5.536;2023-04-29T01:09:34;101299.63;;;10.15;100.00
59787;BME280;45672;51.612;5.536;2023-04-29T01:12:25;101313.59;;;10.17;100.00
59787;BME280;45672;51.612;5.536;2023-04-29T01:15:06;101310.84;;;10.19;100.00
59787;BME280;45672;51.612;5.536;2023-04-29T01:17:40;101315.56;;;10.15;100.00
59787;BME280;45672;51.612;5.536;2023-04-29T01:20:09;101319.34;;;10.13;100.00
59787;BME280;45672;51.612;5.536;2023-04-29T01:22:34;101314.88;;;10.13;100.00
59787;BME280;45672;51.612;5.536;2023-04-29T01:25:01;101313.75;;;10.16;100.00
59787;BME280;45672;51.612;5.536;2023-04-29T01:27:38;101318.81;;;10.19;100.00
59787;BME280;45672;51.612;5.536;2023-04-29T01:33:11;101312.22;;;10.13;100.00
59787;BME280;45672;51.612;5.536;2023-04-29T01:38:59;101314.31;;;10.10;100.00
59787;BME280;45672;51.612;5.536;2023-04-29T01:41:52;101320.47;;;10.10;100.00
59787;BME280;45672;51.612;5.536;2023-04-29T01:44:27;101326.50;;;10.12;100.00
59787;BME280;45672;51.612;5.536;2023-04-29T01:46:53;101320.75;;;10.07;100.00
59787;BME280;45672;51.612;5.536;2023-04-29T01:49:26;101313.88;;;10.05;100.00
59787;BME280;45672;51.612;5.536;2023-04-29T01:51:52;101338.25;;;10.10;100.00
59787;BME280;45672;51.612;5.536;2023-04-29T01:54:17;101328.44;;;10.10;100.00
59787;BME280;45672;51.612;5.536;2023-04-29T01:56:43;101335.72;;;10.08;100.00
59787;BME280;45672;51.612;5.536;2023-04-29T01:59:08;101339.38;;;10.07;100.00
59787;BME280;45672;51.612;5.536;2023-04-29T02:01:34;101338.53;;;10.07;100.00
59787;BME280;45672;51.612;5.536;2023-04-29T02:03:59;101345.66;;;10.06;100.00
59787;BME280;45672;51.612;5.536;2023-04-29T02:06:25;101331.94;;;10.01;100.00
59787;BME280;45672;51.612;5.536;2023-04-29T02:08:50;101338.38;;;9.98;100.00
59787;BME280;45672;51.612;5.536;2023-04-29T02:11:16;101351.81;;;9.97;100.00
59787;BME280;45672;51.612;5.536;2023-04-29T02:13:41;101340.06;;;9.90;100.00
59787;BME280;45672;51.612;5.536;2023-04-29T02:16:11;101353.50;;;9.88;100.00
59787;BME280;45672;51.612;5.536;2023-04-29T02:18:37;101342.00;;;9.88;100.00
59787;BME280;45672;51.612;5.536;2023-04-29T02:21:02;101355.44;;;9.86;100.00
59787;BME280;45672;51.612;5.536;2023-04-29T02:23:28;101353.78;;;9.85;100.00
59787;BME280;45672;51.612;5.536;2023-04-29T02:25:53;101361.03;;;9.83;100.00
59787;BME280;45672;51.612;5.536;2023-04-29T02:28:19;101365.78;;;9.79;100.00
59787;BME280;45672;51.612;5.536;2023-04-29T02:30:44;101362.69;;;9.74;100.00
59787;BME280;45672;51.612;5.536;2023-04-29T02:33:10;101370.22;;;9.69;100.00
59787;BME280;45672;51.612;5.536;2023-04-29T02:35:35;101378.06;;;9.71;100.00
59787;BME280;45672;51.612;5.536;2023-04-29T02:38:00;101369.09;;;9.62;100.00
59787;BME280;45672;51.612;5.536;2023-04-29T02:40:26;101375.66;;;9.58;100.00
59787;BME280;45672;51.612;5.536;2023-04-29T02:42:51;101379.16;;;9.58;100.00
59787;BME280;45672;51.612;5.536;2023-04-29T02:45:17;101384.84;;;9.54;100.00
59787;BME280;45672;51.612;5.536;2023-04-29T02:47:42;101389.47;;;9.52;100.00
59787;BME280;45672;51.612;5.536;2023-04-29T02:50:07;101392.53;;;9.47;100.00
59787;BME280;45672;51.612;5.536;2023-04-29T02:52:33;101392.97;;;9.42;100.00
59787;BME280;45672;51.612;5.536;2023-04-29T02:54:58;101394.88;;;9.40;100.00
59787;BME280;45672;51.612;5.536;2023-04-29T02:57:24;101394.88;;;9.40;100.00
59787;BME280;45672;51.612;5.536;2023-04-29T02:59:49;101409.84;;;9.41;100.00
59787;BME280;45672;51.612;5.536;2023-04-29T03:02:15;101413.47;;;9.40;100.00
59787;BME280;45672;51.612;5.536;2023-04-29T03:04:41;101409.28;;;9.38;100.00
59787;BME280;45672;51.612;5.536;2023-04-29T03:07:06;101413.75;;;9.37;100.00
59787;BME280;45672;51.612;5.536;2023-04-29T03:09:32;101401.56;;;9.35;100.00
59787;BME280;45672;51.612;5.536;2023-04-29T03:11:57;101405.34;;;9.32;100.00
59787;BME280;45672;51.612;5.536;2023-04-29T03:14:23;101407.72;;;9.35;100.00
59787;BME280;45672;51.612;5.536;2023-04-29T03:16:48;101413.03;;;9.35;100.00
59787;BME280;45672;51.612;5.536;2023-04-29T03:19:13;101416.28;;;9.39;100.00
59787;BME280;45672;51.612;5.536;2023-04-29T03:21:39;101411.78;;;9.39;100.00
59787;BME280;45672;51.612;5.536;2023-04-29T03:24:04;101413.47;;;9.40;100.00
59787;BME280;45672;51.612;5.536;2023-04-29T03:26:31;101416.53;;;9.36;100.00
59787;BME280;45672;51.612;5.536;2023-04-29T03:28:56;101423.41;;;9.38;100.00
59787;BME280;45672;51.612;5.536;2023-04-29T03:31:23;101416.41;;;9.37;100.00
59787;BME280;45672;51.612;5.536;2023-04-29T03:33:49;101426.75;;;9.40;100.00
59787;BME280;45672;51.612;5.536;2023-04-29T03:36:17;101422.28;;;9.41;100.00
59787;BME280;45672;51.612;5.536;2023-04-29T03:38:43;101424.94;;;9.41;100.00
59787;BME280;45672;51.612;5.536;2023-04-29T03:41:08;101424.09;;;9.40;100.00
59787;BME280;45672;51.612;5.536;2023-04-29T03:43:33;101426.50;;;9.43;100.00
59787;BME280;45672;51.612;5.536;2023-04-29T03:45:59;101424.84;;;9.42;100.00
59787;BME280;45672;51.612;5.536;2023-04-29T03:48:24;101434.47;;;9.43;100.00
59787;BME280;45672;51.612;5.536;2023-04-29T03:50:49;101425.66;;;9.43;100.00
59787;BME280;45672;51.612;5.536;2023-04-29T03:53:15;101422.19;;;9.42;100.00
59787;BME280;45672;51.612;5.536;2023-04-29T03:55:41;101426.50;;;9.43;100.00
59787;BME280;45672;51.612;5.536;2023-04-29T03:58:06;101434.91;;;9.48;100.00
59787;BME280;45672;51.612;5.536;2023-04-29T04:00:32;101433.94;;;9.49;100.00
59787;BME280;45672;51.612;5.536;2023-04-29T04:02:58;101432.81;;;9.52;100.00
59787;BME280;45672;51.612;5.536;2023-04-29T04:05:24;101433.81;;;9.51;100.00
59787;BME280;45672;51.612;5.536;2023-04-29T04:07:52;101432.25;;;9.48;100.00
59787;BME280;45672;51.612;5.536;2023-04-29T04:10:18;101450.56;;;9.52;100.00
59787;BME280;45672;51.612;5.536;2023-04-29T04:12:43;101447.09;;;9.51;100.00
59787;BME280;45672;51.612;5.536;2023-04-29T04:15:09;101455.88;;;9.52;100.00
59787;BME280;45672;51.612;5.536;2023-04-29T04:17:35;101444.56;;;9.49;100.00
59787;BME280;45672;51.612;5.536;2023-04-29T04:20:00;101454.94;;;9.53;100.00
59787;BME280;45672;51.612;5.536;2023-04-29T04:22:25;101447.78;;;9.53;100.00
59787;BME280;45672;51.612;5.536;2023-04-29T04:24:53;101453.94;;;9.54;100.00
59787;BME280;45672;51.612;5.536;2023-04-29T04:27:19;101462.63;;;9.56;100.00
59787;BME280;45672;51.612;5.536;2023-04-29T04:29:44;101458.00;;;9.58;100.00
59787;BME280;45672;51.612;5.536;2023-04-29T04:32:09;101465.00;;;9.59;100.00
59787;BME280;45672;51.612;5.536;2023-04-29T04:34:35;101470.91;;;9.62;100.00
59787;BME280;45672;51.612;5.536;2023-04-29T04:37:01;101469.34;;;9.60;100.00
59787;BME280;45672;51.612;5.536;2023-04-29T04:39:26;101461.25;;;9.61;100.00
59787;BME280;45672;51.612;5.536;2023-04-29T04:41:52;101469.22;;;9.61;100.00
59787;BME280;45672;51.612;5.536;2023-04-29T04:44:17;101472.72;;;9.62;100.00
59787;BME280;45672;51.612;5.536;2023-04-29T04:46:42;101477.88;;;9.63;100.00
59787;BME280;45672;51.612;5.536;2023-04-29T04:49:07;101484.88;;;9.64;100.00
59787;BME280;45672;51.612;5.536;2023-04-29T04:51:33;101493.69;;;9.65;100.00
59787;BME280;45672;51.612;5.536;2023-04-29T04:53:58;101497.63;;;9.61;100.00
59787;BME280;45672;51.612;5.536;2023-04-29T04:56:23;101506.41;;;9.61;100.00
59787;BME280;45672;51.612;5.536;2023-04-29T04:58:49;101507.25;;;9.62;100.00
59787;BME280;45672;51.612;5.536;2023-04-29T05:01:14;101516.06;;;9.62;100.00
59787;BME280;45672;51.612;5.536;2023-04-29T05:03:39;101513.56;;;9.61;100.00
59787;BME280;45672;51.612;5.536;2023-04-29T05:06:05;101523.91;;;9.64;100.00
59787;BME280;45672;51.612;5.536;2023-04-29T05:08:30;101527.25;;;9.66;100.00
59787;BME280;45672;51.612;5.536;2023-04-29T05:10:55;101517.59;;;9.65;100.00
59787;BME280;45672;51.612;5.536;2023-04-29T05:13:22;101524.34;;;9.69;100.00
59787;BME280;45672;51.612;5.536;2023-04-29T05:15:49;101524.34;;;9.69;100.00
59787;BME280;45672;51.612;5.536;2023-04-29T05:18:15;101532.31;;;9.69;100.00
59787;BME280;45672;51.612;5.536;2023-04-29T05:20:40;101534.72;;;9.72;100.00
59787;BME280;45672;51.612;5.536;2023-04-29T05:23:05;101532.78;;;9.74;100.00
59787;BME280;45672;51.612;5.536;2023-04-29T05:25:31;101529.16;;;9.75;100.00
59787;BME280;45672;51.612;5.536;2023-04-29T05:27:56;101537.38;;;9.72;100.00
59787;BME280;45672;51.612;5.536;2023-04-29T05:30:21;101542.69;;;9.72;100.00
59787;BME280;45672;51.612;5.536;2023-04-29T05:32:47;101542.69;;;9.72;100.00
59787;BME280;45672;51.612;5.536;2023-04-29T05:35:16;101548.72;;;9.74;100.00
59787;BME280;45672;51.612;5.536;2023-04-29T05:37:41;101548.03;;;9.72;100.00
59787;BME280;45672;51.612;5.536;2023-04-29T05:40:07;101545.09;;;9.75;100.00
59787;BME280;45672;51.612;5.536;2023-04-29T05:42:33;101544.22;;;9.75;100.00
59787;BME280;45672;51.612;5.536;2023-04-29T05:44:59;101547.63;;;9.77;100.00
59787;BME280;45672;51.612;5.536;2023-04-29T05:47:24;101555.59;;;9.77;100.00
59787;BME280;45672;51.612;5.536;2023-04-29T05:49:49;101551.22;;;9.76;100.00
59787;BME280;45672;51.612;5.536;2023-04-29T05:52:15;101558.50;;;9.74;100.00
59787;BME280;45672;51.612;5.536;2023-04-29T05:54:40;101569.00;;;9.75;100.00
59787;BME280;45672;51.612;5.536;2023-04-29T05:57:06;101569.97;;;9.74;100.00
59787;BME280;45672;51.612;5.536;2023-04-29T05:59:31;101573.59;;;9.73;100.00
59787;BME280;45672;51.612;5.536;2023-04-29T06:01:58;101578.91;;;9.73;100.00
59787;BME280;45672;51.612;5.536;2023-04-29T06:04:24;101587.28;;;9.69;100.00
59787;BME280;45672;51.612;5.536;2023-04-29T06:06:51;101594.78;;;9.63;100.00
59787;BME280;45672;51.612;5.536;2023-04-29T06:09:17;101591.09;;;9.55;100.00
59787;BME280;45672;51.612;5.536;2023-04-29T06:11:43;101593.91;;;9.53;100.00
59787;BME280;45672;51.612;5.536;2023-04-29T06:14:09;101592.47;;;9.49;100.00
59787;BME280;45672;51.612;5.536;2023-04-29T06:16:34;101601.31;;;9.49;100.00
59787;BME280;45672;51.612;5.536;2023-04-29T06:19:00;101595.00;;;9.51;100.00
59787;BME280;45672;51.612;5.536;2023-04-29T06:21:25;101595.72;;;9.53;100.00
59787;BME280;45672;51.612;5.536;2023-04-29T06:23:52;101608.75;;;9.56;100.00
59787;BME280;45672;51.612;5.536;2023-04-29T06:26:17;101608.16;;;9.52;100.00
59787;BME280;45672;51.612;5.536;2023-04-29T06:28:43;101605.13;;;9.57;100.00
59787;BME280;45672;51.612;5.536;2023-04-29T06:31:08;101609.91;;;9.63;100.00
59787;BME280;45672;51.612;5.536;2023-04-29T06:33:33;101610.38;;;9.68;100.00
59787;BME280;45672;51.612;5.536;2023-04-29T06:35:59;101617.81;;;9.74;100.00
59787;BME280;45672;51.612;5.536;2023-04-29T06:38:24;101618.97;;;9.81;100.00
59787;BME280;45672;51.612;5.536;2023-04-29T06:40:49;101623.75;;;9.88;100.00
59787;BME280;45672;51.612;5.536;2023-04-29T06:43:15;101626.88;;;9.93;100.00
59787;BME280;45672;51.612;5.536;2023-04-29T06:45:40;101632.88;;;9.95;100.00
59787;BME280;45672;51.612;5.536;2023-04-29T06:48:05;101629.97;;;9.98;100.00
59787;BME280;45672;51.612;5.536;2023-04-29T06:50:31;101635.03;;;10.01;100.00
59787;BME280;45672;51.612;5.536;2023-04-29T06:52:57;101645.13;;;10.07;100.00
59787;BME280;45672;51.612;5.536;2023-04-29T06:55:22;101640.41;;;10.11;100.00
59787;BME280;45672;51.612;5.536;2023-04-29T06:57:48;101651.34;;;10.17;100.00
59787;BME280;45672;51.612;5.536;2023-04-29T07:00:13;101658.06;;;10.22;100.00
59787;BME280;45672;51.612;5.536;2023-04-29T07:02:40;101658.81;;;10.24;100.00
59787;BME280;45672;51.612;5.536;2023-04-29T07:05:05;101662.63;;;10.31;100.00
59787;BME280;45672;51.612;5.536;2023-04-29T07:07:31;101660.44;;;10.46;100.00
59787;BME280;45672;51.612;5.536;2023-04-29T07:09:56;101656.59;;;10.60;100.00
59787;BME280;45672;51.612;5.536;2023-04-29T07:12:21;101667.53;;;10.66;100.00
59787;BME280;45672;51.612;5.536;2023-04-29T07:14:47;101679.47;;;10.72;100.00
59787;BME280;45672;51.612;5.536;2023-04-29T07:17:12;101680.16;;;10.74;100.00
59787;BME280;45672;51.612;5.536;2023-04-29T07:19:37;101686.34;;;10.75;100.00
59787;BME280;45672;51.612;5.536;2023-04-29T07:22:03;101682.81;;;10.74;100.00
59787;BME280;45672;51.612;5.536;2023-04-29T07:24:28;101677.22;;;10.77;100.00
59787;BME280;45672;51.612;5.536;2023-04-29T07:26:53;101689.72;;;10.86;100.00
59787;BME280;45672;51.612;5.536;2023-04-29T07:29:19;101691.97;;;10.91;100.00
59787;BME280;45672;51.612;5.536;2023-04-29T07:31:44;101700.56;;;10.95;100.00
59787;BME280;45672;51.612;5.536;2023-04-29T07:34:10;101693.25;;;10.97;100.00
59787;BME280;45672;51.612;5.536;2023-04-29T07:36:35;101700.56;;;10.95;100.00
59787;BME280;45672;51.612;5.536;2023-04-29T07:39:00;101702.22;;;10.96;100.00
59787;BME280;45672;51.612;5.536;2023-04-29T07:41:26;101709.69;;;11.02;100.00
59787;BME280;45672;51.612;5.536;2023-04-29T07:43:52;101707.41;;;11.07;100.00
59787;BME280;45672;51.612;5.536;2023-04-29T07:46:17;101703.66;;;11.10;100.00
59787;BME280;45672;51.612;5.536;2023-04-29T07:48:43;101710.25;;;11.15;100.00
59787;BME280;45672;51.612;5.536;2023-04-29T07:51:13;101708.84;;;11.11;100.00
59787;BME280;45672;51.612;5.536;2023-04-29T07:53:38;101711.78;;;11.08;100.00
59787;BME280;45672;51.612;5.536;2023-04-29T07:56:05;101713.63;;;11.17;100.00
59787;BME280;45672;51.612;5.536;2023-04-29T07:58:31;101716.19;;;11.38;100.00
59787;BME280;45672;51.612;5.536;2023-04-29T08:01:03;101721.78;;;11.45;100.00
59787;BME280;45672;51.612;5.536;2023-04-29T08:03:28;101724.59;;;11.63;100.00
59787;BME280;45672;51.612;5.536;2023-04-29T08:05:54;101729.38;;;11.79;100.00
59787;BME280;45672;51.612;5.536;2023-04-29T08:08:20;101731.75;;;11.92;100.00
59787;BME280;45672;51.612;5.536;2023-04-29T08:10:45;101733.84;;;12.08;100.00
59787;BME280;45672;51.612;5.536;2023-04-29T08:13:11;101729.34;;;12.28;98.82
59787;BME280;45672;51.612;5.536;2023-04-29T08:15:36;101735.75;;;12.45;97.88
59787;BME280;45672;51.612;5.536;2023-04-29T08:18:01;101740.63;;;12.59;97.43
59787;BME280;45672;51.612;5.536;2023-04-29T08:20:27;101733.91;;;12.83;95.80
59787;BME280;45672;51.612;5.536;2023-04-29T08:22:52;101736.53;;;12.93;96.39
59787;BME280;45672;51.612;5.536;2023-04-29T08:25:18;101745.78;;;12.99;94.93
59787;BME280;45672;51.612;5.536;2023-04-29T08:27:43;101736.97;;;13.16;95.27
59787;BME280;45672;51.612;5.536;2023-04-29T08:30:10;101736.69;;;13.37;95.40
59787;BME280;45672;51.612;5.536;2023-04-29T08:32:35;101744.75;;;13.55;93.79
59787;BME280;45672;51.612;5.536;2023-04-29T08:35:01;101742.47;;;13.60;88.98
59787;BME280;45672;51.612;5.536;2023-04-29T08:37:27;101745.50;;;13.84;89.91
59787;BME280;45672;51.612;5.536;2023-04-29T08:39:52;101745.59;;;14.44;87.77
59787;BME280;45672;51.612;5.536;2023-04-29T08:42:20;101764.47;;;15.71;87.13
59787;BME280;45672;51.612;5.536;2023-04-29T08:44:52;101761.03;;;16.68;75.67
59787;BME280;45672;51.612;5.536;2023-04-29T08:47:18;101772.03;;;16.42;74.61
59787;BME280;45672;51.612;5.536;2023-04-29T08:49:44;101775.03;;;15.64;75.24
59787;BME280;45672;51.612;5.536;2023-04-29T08:52:09;101778.94;;;15.19;79.46
59787;BME280;45672;51.612;5.536;2023-04-29T08:54:35;101768.28;;;15.52;81.70
59787;BME280;45672;51.612;5.536;2023-04-29T08:57:01;101783.75;;;17.13;72.58
59787;BME280;45672;51.612;5.536;2023-04-29T08:59:28;101772.63;;;17.16;69.59
59787;BME280;45672;51.612;5.536;2023-04-29T09:01:55;101781.56;;;16.52;71.21
59787;BME280;45672;51.612;5.536;2023-04-29T09:06:55;101781.19;;;18.21;64.76
59787;BME280;45672;51.612;5.536;2023-04-29T09:09:23;101774.41;;;18.25;68.48
59787;BME280;45672;51.612;5.536;2023-04-29T09:11:49;101772.91;;;17.76;68.25
59787;BME280;45672;51.612;5.536;2023-04-29T09:14:14;101780.13;;;17.29;68.93
59787;BME280;45672;51.612;5.536;2023-04-29T09:16:40;101785.41;;;16.66;71.29
59787;BME280;45672;51.612;5.536;2023-04-29T09:19:05;101784.44;;;16.34;74.42
59787;BME280;45672;51.612;5.536;2023-04-29T09:21:31;101787.09;;;16.67;71.07
59787;BME280;45672;51.612;5.536;2023-04-29T09:23:58;101784.13;;;17.33;66.92
59787;BME280;45672;51.612;5.536;2023-04-29T09:26:24;101790.69;;;18.47;66.76
59787;BME280;45672;51.612;5.536;2023-04-29T09:29:06;101791.16;;;19.10;64.14
59787;BME280;45672;51.612;5.536;2023-04-29T09:31:32;101793.16;;;19.96;60.88
59787;BME280;45672;51.612;5.536;2023-04-29T09:33:57;101797.91;;;20.79;52.07
59787;BME280;45672;51.612;5.536;2023-04-29T09:36:45;101797.19;;;20.35;56.77
59787;BME280;45672;51.612;5.536;2023-04-29T09:39:21;101793.34;;;19.94;55.06
59787;BME280;45672;51.612;5.536;2023-04-29T09:44:19;101798.47;;;18.26;57.41
59787;BME280;45672;51.612;5.536;2023-04-29T09:46:59;101790.44;;;17.72;61.87
59787;BME280;45672;51.612;5.536;2023-04-29T09:49:37;101798.19;;;16.48;63.00
59787;BME280;45672;51.612;5.536;2023-04-29T09:52:07;101795.03;;;16.11;66.79
59787;BME280;45672;51.612;5.536;2023-04-29T09:54:34;101794.56;;;15.99;65.92
59787;BME280;45672;51.612;5.536;2023-04-29T09:57:01;101794.19;;;15.94;64.22
59787;BME280;45672;51.612;5.536;2023-04-29T09:59:30;101795.22;;;16.01;68.62
59787;BME280;45672;51.612;5.536;2023-04-29T10:01:57;101797.56;;;16.37;66.23
59787;BME280;45672;51.612;5.536;2023-04-29T10:04:24;101807.25;;;16.55;64.92
59787;BME280;45672;51.612;5.536;2023-04-29T10:06:51;101806.97;;;16.25;62.12
59787;BME280;45672;51.612;5.536;2023-04-29T10:09:18;101814.53;;;16.13;66.30
59787;BME280;45672;51.612;5.536;2023-04-29T10:11:45;101820.34;;;16.50;63.54
59787;BME280;45672;51.612;5.536;2023-04-29T10:14:12;101816.34;;;16.13;64.03
59787;BME280;45672;51.612;5.536;2023-04-29T10:16:45;101815.69;;;16.02;66.84
59787;BME280;45672;51.612;5.536;2023-04-29T10:19:14;101820.38;;;15.84;64.14
59787;BME280;45672;51.612;5.536;2023-04-29T10:21:42;101815.66;;;15.86;66.93
59787;BME280;45672;51.612;5.536;2023-04-29T10:24:09;101821.41;;;16.08;65.13
59787;BME280;45672;51.612;5.536;2023-04-29T10:26:37;101810.75;;;15.65;64.46
59787;BME280;45672;51.612;5.536;2023-04-29T10:29:04;101820.44;;;15.49;68.61
59787;BME280;45672;51.612;5.536;2023-04-29T10:31:30;101823.59;;;15.45;68.43
59787;BME280;45672;51.612;5.536;2023-04-29T10:33:56;101827.31;;;15.44;65.60
59787;BME280;45672;51.612;5.536;2023-04-29T10:36:23;101822.28;;;15.41;65.88
59787;BME280;45672;51.612;5.536;2023-04-29T10:38:53;101823.97;;;15.50;67.86
59787;BME280;45672;51.612;5.536;2023-04-29T10:41:26;101827.28;;;15.36;67.99
59787;BME280;45672;51.612;5.536;2023-04-29T10:43:53;101832.22;;;15.14;68.66
59787;BME280;45672;51.612;5.536;2023-04-29T10:46:23;101834.03;;;15.05;67.31
59787;BME280;45672;51.612;5.536;2023-04-29T10:48:56;101826.78;;;14.97;68.44
59787;BME280;45672;51.612;5.536;2023-04-29T10:51:42;101828.34;;;14.82;69.98
59787;BME280;45672;51.612;5.536;2023-04-29T10:54:09;101824.19;;;14.61;69.76
59787;BME280;45672;51.612;5.536;2023-04-29T10:56:43;101828.19;;;14.57;71.12
59787;BME280;45672;51.612;5.536;2023-04-29T10:59:13;101829.66;;;14.70;68.24
59787;BME280;45672;51.612;5.536;2023-04-29T11:01:48;101837.00;;;14.94;70.06
59787;BME280;45672;51.612;5.536;2023-04-29T11:04:15;101833.78;;;15.33;67.32
59787;BME280;45672;51.612;5.536;2023-04-29T11:06:51;101839.25;;;15.66;64.90
59787;BME280;45672;51.612;5.536;2023-04-29T11:09:20;101830.59;;;15.89;65.33
59787;BME280;45672;51.612;5.536;2023-04-29T11:14:29;101839.81;;;15.86;63.37
59787;BME280;45672;51.612;5.536;2023-04-29T11:16:58;101838.31;;;16.00;62.66
59787;BME280;45672;51.612;5.536;2023-04-29T11:19:35;101837.50;;;15.99;62.92
59787;BME280;45672;51.612;5.536;2023-04-29T11:22:27;101841.34;;;15.97;64.62
59787;BME280;45672;51.612;5.536;2023-04-29T11:24:59;101838.00;;;15.87;63.70
59787;BME280;45672;51.612;5.536;2023-04-29T11:27:28;101844.63;;;15.74;61.84
59787;BME280;45672;51.612;5.536;2023-04-29T11:29:55;101831.63;;;15.45;64.33
59787;BME280;45672;51.612;5.536;2023-04-29T11:32:24;101835.97;;;15.29;63.89
59787;BME280;45672;51.612;5.536;2023-04-29T11:34:50;101827.47;;;15.42;66.04
59787;BME280;45672;51.612;5.536;2023-04-29T11:37:24;101834.25;;;15.71;64.13
59787;BME280;45672;51.612;5.536;2023-04-29T11:39:49;101828.38;;;15.76;61.38
59787;BME280;45672;51.612;5.536;2023-04-29T11:42:21;101832.97;;;15.83;62.53
59787;BME280;45672;51.612;5.536;2023-04-29T11:44:50;101833.28;;;15.89;61.40
59787;BME280;45672;51.612;5.536;2023-04-29T11:47:16;101831.13;;;15.92;61.78
59787;BME280;45672;51.612;5.536;2023-04-29T11:49:41;101836.66;;;16.32;62.88
59787;BME280;45672;51.612;5.536;2023-04-29T11:52:07;101832.59;;;16.61;58.23
59787;BME280;45672;51.612;5.536;2023-04-29T11:54:33;101839.28;;;16.89;58.66
59787;BME280;45672;51.612;5.536;2023-04-29T11:56:58;101837.50;;;17.21;58.44
59787;BME280;45672;51.612;5.536;2023-04-29T11:59:23;101838.59;;;17.35;57.20
59787;BME280;45672;51.612;5.536;2023-04-29T12:01:49;101845.50;;;17.30;56.58
59787;BME280;45672;51.612;5.536;2023-04-29T12:04:15;101841.78;;;16.91;55.93
59787;BME280;45672;51.612;5.536;2023-04-29T12:06:41;101844.69;;;16.40;59.47
59787;BME280;45672;51.612;5.536;2023-04-29T12:09:06;101839.00;;;16.27;59.17
59787;BME280;45672;51.612;5.536;2023-04-29T12:11:32;101843.19;;;16.13;61.50
59787;BME280;45672;51.612;5.536;2023-04-29T12:13:59;101838.84;;;16.20;58.29
59787;BME280;45672;51.612;5.536;2023-04-29T12:16:27;101842.34;;;16.29;59.46
59787;BME280;45672;51.612;5.536;2023-04-29T12:18:54;101843.53;;;16.43;58.28
59787;BME280;45672;51.612;5.536;2023-04-29T12:21:23;101843.47;;;16.84;59.30
59787;BME280;45672;51.612;5.536;2023-04-29T12:23:50;101839.66;;;17.26;57.70
59787;BME280;45672;51.612;5.536;2023-04-29T12:26:15;101840.78;;;17.40;53.49
59787;BME280;45672;51.612;5.536;2023-04-29T12:28:43;101841.84;;;17.22;56.70
59787;BME280;45672;51.612;5.536;2023-04-29T12:31:09;101844.22;;;17.17;57.87
59787;BME280;45672;51.612;5.536;2023-04-29T12:33:41;101850.59;;;17.25;58.94
59787;BME280;45672;51.612;5.536;2023-04-29T12:36:15;101850.63;;;17.16;56.62
59787;BME280;45672;51.612;5.536;2023-04-29T12:38:42;101852.88;;;16.88;55.57
59787;BME280;45672;51.612;5.536;2023-04-29T12:41:07;101841.97;;;16.89;56.69
59787;BME280;45672;51.612;5.536;2023-04-29T12:43:33;101846.34;;;16.91;58.64
59787;BME280;45672;51.612;5.536;2023-04-29T12:46:06;101844.66;;;16.89;58.49
59787;BME280;45672;51.612;5.536;2023-04-29T12:48:37;101846.66;;;16.79;57.83
59787;BME280;45672;51.612;5.536;2023-04-29T12:51:10;101843.34;;;16.61;58.19
59787;BME280;45672;51.612;5.536;2023-04-29T12:53:36;101845.38;;;16.26;56.66
59787;BME280;45672;51.612;5.536;2023-04-29T12:56:01;101845.38;;;15.93;58.63
59787;BME280;45672;51.612;5.536;2023-04-29T12:58:31;101856.19;;;15.75;59.31
59787;BME280;45672;51.612;5.536;2023-04-29T13:00:58;101857.00;;;15.59;59.40
59787;BME280;45672;51.612;5.536;2023-04-29T13:03:23;101857.13;;;15.49;60.96